Chemehuevi, California
Current Conditions -  °F | °C
As of 5:56 PM on Friday 24 Oct 2014 (Local Time) from KEED Reporting Station
Clear Clear  
Wind Chill: 85°   Ceiling: Unl
Heat Index: 85°   Visibility: 10mi
Dew Point: 37°   Wind: 7mph
Humidity: 18%   Direction: 240°WSW
Pressure: 29.93"   Gusts: NA
Location:  34.5025°N, 114.671°W
Report Text: KEED 250156Z AUTO 24006KT 10SM CLR 29/03 A2993 RMK AO2 SLP111 T02940028
Loading
Personal Weather Stations






























Interactive Weather Map
Tropical Storm Tracking
New forecast layout! Learn more

10-Day Weather Forecast

Advertisements
Track Severe Weather on mobile